Time;durP1;ratioP1;P1;durP2;ratioP2;P2;SDS_P1;SDS_P2;PMS_P1;PMS_P2;Temp;Humidity;BMP_temperature;BMP_pressure;BME280_temperature;BME280_humidity;BME280_pressure;Samples;Min_cycle;Max_cycle;Signal;HPM_P1;HPM_P2
2023/05/01 00:01:07;;;;;;;18.10;5.03;;;11.70;99.90;;;;;;5022679;28;20586;-74
2023/05/01 00:03:32;;;;;;;20.20;5.17;;;11.70;99.90;;;;;;5027675;28;20177;-74
2023/05/01 00:06:00;;;;;;;16.30;4.70;;;11.80;99.90;;;;;;5027188;28;20743;-74
2023/05/01 00:08:25;;;;;;;18.37;4.20;;;11.80;99.90;;;;;;5021903;28;20178;-73
2023/05/01 00:10:51;;;;;;;20.37;5.03;;;11.80;99.90;;;;;;5004479;28;20696;-74
2023/05/01 00:13:20;;;;;;;21.00;5.00;;;11.80;99.90;;;;;;5025466;28;20174;-73
2023/05/01 00:15:47;;;;;;;14.40;3.63;;;11.80;99.90;;;;;;5024684;28;20275;-73
2023/05/01 00:18:12;;;;;;;19.03;4.40;;;11.80;99.90;;;;;;5026851;28;20244;-74
2023/05/01 00:20:38;;;;;;;18.50;4.60;;;11.90;99.90;;;;;;5024979;28;20186;-75
2023/05/01 00:23:04;;;;;;;12.87;4.17;;;11.80;99.90;;;;;;5026479;28;20219;-74
2023/05/01 00:25:30;;;;;;;13.50;4.27;;;11.90;99.90;;;;;;5024762;28;20570;-75
2023/05/01 00:27:57;;;;;;;16.93;4.13;;;11.90;99.90;;;;;;5021785;28;20261;-76
2023/05/01 00:30:23;;;;;;;13.57;3.97;;;11.90;99.90;;;;;;5025642;28;20185;-75
2023/05/01 00:32:48;;;;;;;16.70;4.03;;;11.90;99.90;;;;;;5021774;28;20189;-76
2023/05/01 00:35:15;;;;;;;21.63;4.77;;;11.90;99.90;;;;;;5025869;28;20209;-77
2023/05/01 00:37:41;;;;;;;17.20;4.10;;;11.90;99.90;;;;;;5020683;28;20198;-73
2023/05/01 00:40:07;;;;;;;18.60;4.20;;;11.90;99.90;;;;;;5025553;28;20275;-74
2023/05/01 00:42:38;;;;;;;16.03;4.50;;;11.80;99.90;;;;;;5024929;28;20182;-73
2023/05/01 00:45:05;;;;;;;21.10;4.63;;;11.90;99.90;;;;;;5025784;28;20546;-74
2023/05/01 00:47:31;;;;;;;19.03;4.10;;;11.90;99.90;;;;;;5022340;28;20185;-74
2023/05/01 00:49:59;;;;;;;21.30;4.47;;;11.90;99.90;;;;;;5023903;28;20173;-73
2023/05/01 00:52:25;;;;;;;15.60;4.50;;;11.90;99.90;;;;;;5023663;28;20181;-73
2023/05/01 00:54:51;;;;;;;16.97;4.20;;;11.80;99.90;;;;;;5022776;28;20259;-74
2023/05/01 00:57:19;;;;;;;27.10;5.10;;;11.80;99.90;;;;;;5027254;28;20185;-73
2023/05/01 00:59:45;;;;;;;19.00;5.00;;;11.80;99.90;;;;;;5022361;28;20179;-74
2023/05/01 01:02:13;;;;;;;18.50;5.13;;;11.80;99.90;;;;;;5024101;28;20193;-73
2023/05/01 01:04:44;;;;;;;18.63;5.20;;;11.70;99.90;;;;;;5024348;28;20193;-74
2023/05/01 01:07:49;;;;;;;20.90;5.10;;;11.70;99.90;;;;;;5024015;28;20182;-76
2023/05/01 01:10:21;;;;;;;25.47;5.97;;;11.60;99.90;;;;;;5020454;28;20221;-74
2023/05/01 01:13:19;;;;;;;16.80;5.10;;;11.50;99.90;;;;;;5020694;28;20660;-75
2023/05/01 01:15:55;;;;;;;19.80;6.00;;;11.50;99.90;;;;;;5003467;28;20314;-74
2023/05/01 01:18:49;;;;;;;21.47;6.40;;;11.40;99.90;;;;;;5023698;28;20222;-73
2023/05/01 01:21:24;;;;;;;23.70;6.13;;;11.40;99.90;;;;;;5021205;28;20668;-74
2023/05/01 01:24:19;;;;;;;21.13;5.77;;;11.40;99.90;;;;;;5019811;28;20185;-73
2023/05/01 01:27:17;;;;;;;21.97;6.00;;;11.40;99.90;;;;;;5023993;28;20243;-73
2023/05/01 01:30:08;;;;;;;18.20;6.00;;;11.30;99.90;;;;;;5023592;28;20265;-74
2023/05/01 01:32:52;;;;;;;25.43;5.60;;;11.40;99.90;;;;;;5022752;28;20186;-73
2023/05/01 01:35:25;;;;;;;24.63;6.87;;;11.40;99.90;;;;;;5016977;28;20216;-73
2023/05/01 01:38:15;;;;;;;22.53;6.20;;;11.40;99.90;;;;;;5020148;28;20179;-73
2023/05/01 01:41:00;;;;;;;19.07;5.77;;;11.40;99.90;;;;;;5024123;28;20542;-72
2023/05/01 01:43:31;;;;;;;17.77;5.27;;;11.40;99.90;;;;;;5023615;28;20216;-73
2023/05/01 01:46:00;;;;;;;20.87;4.40;;;11.50;99.90;;;;;;5023064;28;20190;-73
2023/05/01 01:48:32;;;;;;;17.47;4.83;;;11.50;99.90;;;;;;5023906;28;20376;-73
2023/05/01 01:50:59;;;;;;;20.73;4.90;;;11.50;99.90;;;;;;5020471;28;20285;-73
2023/05/01 01:53:28;;;;;;;15.57;4.67;;;11.50;99.90;;;;;;5022476;28;20192;-74
2023/05/01 01:55:57;;;;;;;20.00;5.00;;;11.60;99.90;;;;;;5023397;28;20217;-74
2023/05/01 01:58:25;;;;;;;16.83;4.60;;;11.60;99.90;;;;;;5019096;28;20174;-74
2023/05/01 02:00:52;;;;;;;16.93;4.67;;;11.60;99.90;;;;;;5024599;28;20257;-74
2023/05/01 02:03:19;;;;;;;13.50;3.67;;;11.50;99.90;;;;;;5021984;28;20208;-74
2023/05/01 02:05:47;;;;;;;22.43;4.53;;;11.50;99.90;;;;;;5023151;28;20649;-73
2023/05/01 02:08:15;;;;;;;19.37;4.20;;;11.50;99.90;;;;;;5024471;28;20668;-74
2023/05/01 02:10:42;;;;;;;14.57;4.10;;;11.50;99.90;;;;;;5029665;28;20218;-73
2023/05/01 02:13:09;;;;;;;18.67;4.00;;;11.50;99.90;;;;;;5024979;28;20189;-74
2023/05/01 02:15:36;;;;;;;14.93;3.73;;;11.60;99.90;;;;;;5028445;28;20210;-74
2023/05/01 02:18:03;;;;;;;16.73;3.53;;;11.60;99.90;;;;;;5023867;28;20175;-74
2023/05/01 02:20:29;;;;;;;16.73;3.33;;;11.60;99.90;;;;;;5028469;28;20178;-74
2023/05/01 02:22:57;;;;;;;15.53;4.00;;;11.40;99.90;;;;;;5023181;28;20208;-74
2023/05/01 02:25:23;;;;;;;16.67;3.90;;;11.60;99.90;;;;;;5022825;28;20592;-74
2023/05/01 02:28:01;;;;;;;20.13;3.87;;;11.60;99.90;;;;;;5025805;28;20229;-74
2023/05/01 02:30:27;;;;;;;13.17;4.10;;;11.60;99.90;;;;;;5022801;28;20223;-73
2023/05/01 02:32:52;;;;;;;20.67;5.03;;;11.60;99.90;;;;;;5024190;28;20203;-73
2023/05/01 02:35:18;;;;;;;20.10;4.40;;;11.70;99.90;;;;;;5027128;28;20219;-73
2023/05/01 02:37:44;;;;;;;16.63;4.00;;;11.70;99.90;;;;;;5026479;28;20210;-74
2023/05/01 02:40:14;;;;;;;12.30;3.67;;;11.70;99.90;;;;;;5025749;28;20220;-72
2023/05/01 02:42:42;;;;;;;15.47;4.03;;;11.70;99.90;;;;;;5008936;28;20614;-73
2023/05/01 02:45:14;;;;;;;18.17;3.80;;;11.70;99.90;;;;;;5024765;28;20265;-72
2023/05/01 02:47:42;;;;;;;18.60;3.80;;;11.70;99.90;;;;;;5025914;28;20174;-72
2023/05/01 02:50:09;;;;;;;19.93;4.03;;;11.70;99.90;;;;;;5025960;28;20527;-73
2023/05/01 02:52:37;;;;;;;12.80;4.10;;;11.70;99.90;;;;;;5025734;28;20177;-73
2023/05/01 02:55:04;;;;;;;19.70;4.03;;;11.80;99.90;;;;;;5023399;28;20272;-73
2023/05/01 02:57:32;;;;;;;16.93;3.83;;;11.70;99.90;;;;;;5028019;28;20209;-73
2023/05/01 02:59:58;;;;;;;21.37;4.73;;;11.70;99.90;;;;;;5024380;28;20175;-73
2023/05/01 03:02:24;;;;;;;13.97;4.07;;;;;;;;;;5027504;28;20243;-73
2023/05/01 03:04:49;;;;;;;19.90;4.60;;;11.60;99.90;;;;;;5023069;28;20190;-74
2023/05/01 03:07:15;;;;;;;18.60;4.83;;;11.60;99.90;;;;;;5027210;28;20185;-79
2023/05/01 03:09:41;;;;;;;19.10;4.60;;;11.60;99.90;;;;;;5028949;28;20178;-80
2023/05/01 03:12:06;;;;;;;24.57;5.77;;;11.50;99.90;;;;;;5027770;28;20715;-80
2023/05/01 03:14:32;;;;;;;16.73;5.07;;;11.50;99.90;;;;;;5024217;28;20236;-81
2023/05/01 03:16:57;;;;;;;16.73;4.90;;;11.60;99.90;;;;;;5025801;28;20209;-78
2023/05/01 03:19:23;;;;;;;21.90;5.73;;;11.40;99.90;;;;;;5025307;28;20224;-78
2023/05/01 03:21:49;;;;;;;16.07;5.33;;;11.40;99.90;;;;;;5006327;28;20185;-80
2023/05/01 03:24:14;;;;;;;23.67;5.73;;;11.40;99.90;;;;;;5026426;28;20687;-78
2023/05/01 03:26:40;;;;;;;19.07;5.53;;;11.40;99.90;;;;;;5024983;28;20185;-80
2023/05/01 03:29:05;;;;;;;26.20;5.30;;;11.40;99.90;;;;;;5012161;28;20178;-79
2023/05/01 03:31:31;;;;;;;15.50;5.17;;;;;;;;;;5025224;28;20699;-78
2023/05/01 03:33:57;;;;;;;14.47;4.73;;;11.40;99.90;;;;;;5027637;28;20189;-80
2023/05/01 03:36:24;;;;;;;20.23;5.87;;;;;;;;;;5004719;28;20563;-78
2023/05/01 03:38:49;;;;;;;23.77;5.97;;;11.50;99.90;;;;;;5026590;28;20182;-79
2023/05/01 03:41:15;;;;;;;24.53;6.50;;;11.50;99.90;;;;;;5022923;28;20236;-78
2023/05/01 03:43:41;;;;;;;25.17;5.37;;;11.60;99.90;;;;;;5025593;28;20192;-80
2023/05/01 03:46:06;;;;;;;25.03;5.97;;;11.60;99.90;;;;;;5024406;28;20309;-79
2023/05/01 03:48:32;;;;;;;25.20;5.80;;;11.60;99.90;;;;;;5023971;28;20251;-78
2023/05/01 03:50:57;;;;;;;17.07;5.33;;;11.50;99.90;;;;;;5026707;28;20210;-79
2023/05/01 03:53:24;;;;;;;18.30;5.80;;;;;;;;;;5022866;28;20174;-79
2023/05/01 03:55:49;;;;;;;19.63;4.93;;;11.50;99.90;;;;;;5026565;28;20213;-81
2023/05/01 03:58:15;;;;;;;18.57;5.20;;;11.60;99.90;;;;;;5024200;28;20174;-80
2023/05/01 04:00:41;;;;;;;21.87;5.60;;;11.60;99.90;;;;;;5026677;28;20181;-81
2023/05/01 04:03:06;;;;;;;17.93;5.83;;;11.60;99.90;;;;;;5023520;28;20177;-81
2023/05/01 04:05:32;;;;;;;18.23;5.20;;;11.70;99.90;;;;;;5029384;28;20658;-81
2023/05/01 04:07:58;;;;;;;13.63;5.47;;;11.60;99.90;;;;;;5022699;28;20247;-81
2023/05/01 04:10:24;;;;;;;25.10;6.00;;;11.60;99.90;;;;;;5025012;28;20224;-80
2023/05/01 04:12:49;;;;;;;25.20;5.27;;;11.60;99.90;;;;;;5024843;28;20600;-82
2023/05/01 04:15:15;;;;;;;15.73;5.30;;;11.60;99.90;;;;;;5025969;28;20205;-78
2023/05/01 04:20:34;;;;;;;16.77;4.77;;;11.70;99.90;;;;;;4620830;22;20260;-78
2023/05/01 04:23:00;;;;;;;25.57;5.87;;;11.70;99.90;;;;;;5027293;28;20278;-80
2023/05/01 04:25:26;;;;;;;26.10;5.90;;;11.60;99.90;;;;;;5030275;28;20256;-81
2023/05/01 04:27:51;;;;;;;13.43;4.67;;;11.70;99.90;;;;;;5010081;28;20210;-80
2023/05/01 04:30:17;;;;;;;23.47;5.30;;;11.70;99.90;;;;;;5028534;28;20178;-81
2023/05/01 04:32:43;;;;;;;23.13;5.50;;;11.70;99.90;;;;;;5029057;28;20224;-82
2023/05/01 04:35:09;;;;;;;17.53;5.20;;;11.70;99.90;;;;;;5007783;28;20217;-81
2023/05/01 04:37:35;;;;;;;19.07;4.93;;;;;;;;;;5029141;28;20552;-82
2023/05/01 04:40:01;;;;;;;19.97;5.70;;;11.70;99.90;;;;;;5028737;28;20174;-85
2023/05/01 04:42:30;;;;;;;18.83;5.20;;;11.70;99.90;;;;;;5031170;28;20200;-87
2023/05/01 04:44:57;;;;;;;29.67;5.87;;;;;;;;;;5028566;28;20316;-77
2023/05/01 04:47:22;;;;;;;18.53;5.63;;;11.70;99.90;;;;;;5022109;28;20641;-74
2023/05/01 04:49:48;;;;;;;19.67;6.40;;;11.70;99.90;;;;;;5025491;28;20178;-77
2023/05/01 04:52:13;;;;;;;24.30;6.50;;;11.60;99.90;;;;;;5028526;28;20189;-77
2023/05/01 04:54:39;;;;;;;21.03;5.83;;;12.90;99.90;;;;;;5028365;28;20300;-77
2023/05/01 04:57:05;;;;;;;18.90;6.03;;;11.70;99.90;;;;;;5018376;28;20186;-77
2023/05/01 04:59:30;;;;;;;19.00;5.67;;;11.50;99.90;;;;;;5027233;28;20266;-77
2023/05/01 05:01:56;;;;;;;22.20;5.87;;;11.70;99.90;;;;;;5011889;28;20185;-77
2023/05/01 05:04:22;;;;;;;23.60;6.20;;;11.70;99.90;;;;;;5028779;28;20178;-79
2023/05/01 05:06:47;;;;;;;20.90;6.13;;;11.70;99.90;;;;;;5028348;28;20186;-78
2023/05/01 05:09:13;;;;;;;23.27;6.57;;;11.70;99.90;;;;;;5029135;28;20185;-79
2023/05/01 05:11:40;;;;;;;24.17;6.53;;;11.70;99.90;;;;;;5027264;28;20184;-77
2023/05/01 05:14:06;;;;;;;17.77;6.27;;;;;;;;;;5029748;28;20190;-78
2023/05/01 05:16:32;;;;;;;17.57;6.00;;;11.80;99.90;;;;;;5027563;28;20188;-79
2023/05/01 05:18:57;;;;;;;22.13;7.37;;;11.80;99.90;;;;;;5028705;28;20177;-77
2023/05/01 05:21:23;;;;;;;25.90;7.00;;;11.80;99.90;;;;;;5028378;28;20229;-78
2023/05/01 05:23:49;;;;;;;19.17;7.83;;;11.80;99.90;;;;;;5028761;28;20200;-77
2023/05/01 05:26:15;;;;;;;20.10;7.53;;;;;;;;;;5027642;28;20228;-77
2023/05/01 05:28:41;;;;;;;18.13;7.50;;;11.90;99.90;;;;;;5028522;28;20181;-76
2023/05/01 05:31:06;;;;;;;19.23;7.83;;;11.80;99.90;;;;;;5028026;28;20174;-77
2023/05/01 05:33:32;;;;;;;24.23;7.90;;;11.90;99.90;;;;;;5027835;28;20234;-76
2023/05/01 05:35:58;;;;;;;17.37;7.70;;;11.90;99.90;;;;;;5028560;28;20213;-77
2023/05/01 05:38:24;;;;;;;20.33;7.50;;;11.90;99.90;;;;;;5026841;28;20261;-77
2023/05/01 05:40:50;;;;;;;17.47;7.30;;;11.90;99.90;;;;;;5028070;28;20260;-77
2023/05/01 05:43:16;;;;;;;22.77;7.17;;;12.00;99.90;;;;;;5012944;28;20189;-76
2023/05/01 05:45:41;;;;;;;28.20;7.60;;;12.10;99.90;;;;;;5030961;28;20174;-77
2023/05/01 05:48:07;;;;;;;25.30;7.87;;;;;;;;;;5031022;28;20185;-77
2023/05/01 05:50:33;;;;;;;22.47;6.80;;;12.10;99.90;;;;;;5031299;28;20174;-77
2023/05/01 05:52:58;;;;;;;20.27;7.07;;;12.10;99.90;;;;;;5031195;28;20947;-77
2023/05/01 05:55:24;;;;;;;17.43;7.07;;;12.10;99.90;;;;;;5031913;28;20209;-77
2023/05/01 05:57:50;;;;;;;17.47;7.53;;;12.10;99.90;;;;;;5030632;28;20213;-77
2023/05/01 06:00:16;;;;;;;22.97;7.47;;;12.20;99.90;;;;;;5032340;28;20232;-77
2023/05/01 06:02:41;;;;;;;25.47;7.47;;;12.20;99.90;;;;;;5032844;28;20244;-77
2023/05/01 06:05:09;;;;;;;20.43;7.33;;;12.30;99.90;;;;;;5030583;28;20644;-77
2023/05/01 06:07:34;;;;;;;25.60;7.37;;;12.30;99.90;;;;;;5032617;28;20655;-78
2023/05/01 06:10:03;;;;;;;20.50;7.23;;;12.40;99.90;;;;;;5030654;28;20209;-77
2023/05/01 06:12:30;;;;;;;16.93;6.50;;;12.50;99.90;;;;;;5005284;28;20216;-77
2023/05/01 06:14:57;;;;;;;25.27;8.17;;;12.40;99.90;;;;;;5030246;28;20309;-76
2023/05/01 06:17:23;;;;;;;23.50;8.10;;;12.40;99.90;;;;;;5031745;28;20178;-77
2023/05/01 06:19:51;;;;;;;25.60;7.60;;;12.60;99.90;;;;;;5031498;28;20209;-77
2023/05/01 06:22:17;;;;;;;33.87;8.07;;;12.60;99.90;;;;;;5031838;28;20232;-79
2023/05/01 06:24:43;;;;;;;18.37;6.80;;;12.70;99.90;;;;;;5031259;28;20271;-78
2023/05/01 06:27:09;;;;;;;24.20;7.27;;;12.70;99.90;;;;;;5032569;28;20213;-79
2023/05/01 06:29:35;;;;;;;17.00;6.70;;;12.60;99.90;;;;;;5030259;28;20177;-77
2023/05/01 06:32:01;;;;;;;19.03;6.80;;;12.70;99.90;;;;;;5027867;28;20177;-78
2023/05/01 06:34:27;;;;;;;28.10;6.33;;;12.70;99.90;;;;;;5030974;28;20231;-79
2023/05/01 06:36:52;;;;;;;19.23;5.97;;;12.80;99.90;;;;;;5031754;28;20221;-79
2023/05/01 06:39:18;;;;;;;23.00;6.43;;;12.90;99.90;;;;;;5031523;28;20182;-82
2023/05/01 06:41:47;;;;;;;15.43;5.43;;;13.00;99.90;;;;;;5030092;28;20695;-80
2023/05/01 06:44:13;;;;;;;14.90;6.23;;;12.90;99.90;;;;;;5010941;28;20178;-84
2023/05/01 06:46:39;;;;;;;17.00;6.43;;;13.00;99.90;;;;;;5031970;28;20200;-82
2023/05/01 06:49:05;;;;;;;16.35;6.47;;;13.10;99.90;;;;;;5032330;28;20648;-86
2023/05/01 06:51:31;;;;;;;16.40;6.27;;;13.20;99.90;;;;;;5030961;28;20224;-78
2023/05/01 06:53:57;;;;;;;21.97;6.57;;;13.20;99.90;;;;;;5031379;28;20181;-77
2023/05/01 06:56:22;;;;;;;20.03;6.43;;;13.10;99.90;;;;;;5029597;28;20568;-76
2023/05/01 06:58:48;;;;;;;20.10;6.38;;;15.10;99.90;;;;;;5030000;28;20178;-70
2023/05/01 07:01:13;;;;;;;20.15;6.20;;;13.10;99.90;;;;;;5029515;28;20220;-69
2023/05/01 07:03:39;;;;;;;19.20;6.60;;;13.10;99.90;;;;;;5028704;28;20273;-70
2023/05/01 07:06:05;;;;;;;18.05;6.00;;;13.10;99.90;;;;;;5012097;28;20185;-70
2023/05/01 07:08:31;;;;;;;16.38;5.75;;;13.20;99.90;;;;;;5027196;28;20546;-70
2023/05/01 07:10:57;;;;;;;23.65;5.95;;;13.30;99.90;;;;;;5028011;28;20249;-71
2023/05/01 07:13:23;;;;;;;17.63;5.50;;;13.30;99.90;;;;;;5029483;28;20185;-70
2023/05/01 07:15:49;;;;;;;16.30;5.47;;;13.30;99.90;;;;;;5031291;28;20205;-71
2023/05/01 07:18:16;;;;;;;15.98;5.10;;;13.30;99.90;;;;;;5029046;28;20672;-70
2023/05/01 07:20:41;;;;;;;16.07;5.47;;;13.30;99.90;;;;;;5030098;28;20233;-69
2023/05/01 07:23:08;;;;;;;22.10;6.05;;;13.50;99.90;;;;;;5028574;28;20223;-70
2023/05/01 07:25:36;;;;;;;15.65;5.93;;;13.60;99.90;;;;;;5030514;28;20200;-70
2023/05/01 07:28:03;;;;;;;24.25;5.93;;;13.60;99.90;;;;;;5028804;28;20177;-70
2023/05/01 07:30:29;;;;;;;22.38;6.43;;;13.70;99.90;;;;;;5013870;28;20186;-69
2023/05/01 07:32:56;;;;;;;17.23;5.43;;;13.80;99.90;;;;;;5030054;28;20525;-70
2023/05/01 07:35:22;;;;;;;18.50;6.00;;;13.90;99.90;;;;;;5028940;28;20684;-70
2023/05/01 07:37:50;;;;;;;17.20;6.15;;;13.90;99.90;;;;;;5029669;28;20316;-70
2023/05/01 07:40:16;;;;;;;19.42;6.15;;;14.00;99.90;;;;;;5029339;28;20892;-68
2023/05/01 07:42:42;;;;;;;16.30;5.93;;;14.10;99.90;;;;;;5014368;28;20272;-67
2023/05/01 07:45:08;;;;;;;13.50;5.50;;;14.20;99.90;;;;;;5031394;28;20562;-67
2023/05/01 07:47:33;;;;;;;12.88;5.55;;;14.30;99.90;;;;;;5030523;28;20320;-66
2023/05/01 07:49:59;;;;;;;19.95;6.30;;;14.30;99.90;;;;;;5028367;28;20700;-67
2023/05/01 07:52:25;;;;;;;19.80;6.18;;;14.30;99.90;;;;;;5031409;28;20180;-67
2023/05/01 07:54:51;;;;;;;15.85;5.55;;;14.30;99.90;;;;;;5028427;28;20205;-67
2023/05/01 07:57:17;;;;;;;14.77;5.40;;;14.30;99.90;;;;;;5029431;28;20687;-71
2023/05/01 07:59:43;;;;;;;16.95;5.07;;;14.40;99.90;;;;;;5028011;28;20182;-71
2023/05/01 08:02:09;;;;;;;9.95;5.13;;;14.50;99.90;;;;;;5030614;28;20334;-70
2023/05/01 08:04:34;;;;;;;16.33;5.43;;;14.70;99.90;;;;;;5023771;28;20524;-71
2023/05/01 08:07:00;;;;;;;14.10;4.32;;;14.70;99.90;;;;;;5028049;28;20209;-77
2023/05/01 08:09:25;;;;;;;12.57;4.47;;;14.50;99.90;;;;;;5028611;28;20220;-78
2023/05/01 08:11:51;;;;;;;9.80;4.07;;;14.60;99.90;;;;;;5028765;28;20619;-77
2023/05/01 08:14:18;;;;;;;10.68;4.30;;;14.80;99.90;;;;;;5029664;28;20177;-77
2023/05/01 08:16:43;;;;;;;10.90;4.15;;;14.60;99.90;;;;;;5028611;28;20174;-79
2023/05/01 08:19:09;;;;;;;15.30;4.63;;;14.70;99.90;;;;;;5029905;28;20710;-81
2023/05/01 08:21:35;;;;;;;13.25;4.85;;;14.70;99.90;;;;;;5009464;28;20238;-81
2023/05/01 08:24:00;;;;;;;16.10;4.82;;;14.80;99.90;;;;;;5028128;28;20659;-81
2023/05/01 08:26:26;;;;;;;12.05;3.90;;;14.90;99.90;;;;;;5027614;28;20232;-79
2023/05/01 08:28:51;;;;;;;9.32;3.45;;;14.80;99.90;;;;;;5029162;28;20659;-79
2023/05/01 08:31:18;;;;;;;14.57;3.85;;;14.80;99.90;;;;;;5028879;28;20178;-80
2023/05/01 08:33:43;;;;;;;12.43;3.80;;;14.90;99.90;;;;;;5027934;28;20186;-81
2023/05/01 08:36:10;;;;;;;10.57;3.88;;;14.90;99.90;;;;;;5025074;28;20623;-78
2023/05/01 08:38:36;;;;;;;12.25;3.75;;;15.00;99.90;;;;;;5027470;28;20177;-78
2023/05/01 08:41:02;;;;;;;8.25;3.35;;;15.30;99.90;;;;;;5027672;28;20339;-79
2023/05/01 08:43:31;;;;;;;10.90;3.97;;;15.40;99.90;;;;;;5027739;28;20663;-77
2023/05/01 08:46:00;;;;;;;8.15;3.33;;;15.40;99.90;;;;;;5029027;28;20233;-77
2023/05/01 08:48:27;;;;;;;12.43;3.65;;;15.30;99.90;;;;;;5010547;28;20194;-77
2023/05/01 08:50:55;;;;;;;9.43;3.72;;;15.20;99.90;;;;;;5031273;28;20173;-79
2023/05/01 08:53:23;;;;;;;7.93;3.17;;;15.40;99.90;;;;;;5028447;28;20633;-79
2023/05/01 08:55:50;;;;;;;9.65;3.10;;;15.50;99.90;;;;;;5029525;28;20238;-79
2023/05/01 08:58:18;;;;;;;9.60;3.10;;;15.60;99.90;;;;;;5028518;28;20193;-78
2023/05/01 09:00:45;;;;;;;8.90;3.22;;;15.90;99.90;;;;;;5030203;28;20276;-80
2023/05/01 09:03:12;;;;;;;13.50;3.42;;;16.40;99.90;;;;;;5027648;28;20177;-79
2023/05/01 09:05:38;;;;;;;10.05;3.63;;;16.70;99.90;;;;;;5025842;28;20193;-79
2023/05/01 09:08:04;;;;;;;11.75;3.70;;;16.60;99.90;;;;;;5029318;28;20178;-80
2023/05/01 09:10:31;;;;;;;8.75;3.70;;;16.70;99.90;;;;;;5028219;28;20178;-80
2023/05/01 09:13:02;;;;;;;11.13;3.55;;;16.60;99.90;;;;;;5029901;28;20238;-80
2023/05/01 09:15:29;;;;;;;11.20;3.88;;;16.60;99.90;;;;;;5027748;28;20209;-79
2023/05/01 09:17:58;;;;;;;8.27;3.30;;;16.50;99.90;;;;;;5028784;28;20189;-79
2023/05/01 09:20:24;;;;;;;8.10;3.05;;;16.90;99.90;;;;;;5028182;28;20225;-80
2023/05/01 09:22:50;;;;;;;7.05;2.45;;;17.80;99.90;;;;;;5028858;28;20220;-78
2023/05/01 09:25:16;;;;;;;8.80;2.90;;;18.10;99.90;;;;;;5028102;28;20178;-75
2023/05/01 09:27:43;;;;;;;10.65;3.03;;;18.80;99.90;;;;;;5011350;28;20251;-76
2023/05/01 09:30:28;;;;;;;8.45;3.00;;;18.70;99.90;;;;;;5028447;28;20205;-76
2023/05/01 09:33:12;;;;;;;8.55;2.60;;;18.40;99.90;;;;;;5021858;28;20201;-75
2023/05/01 09:35:55;;;;;;;6.85;2.75;;;17.90;99.90;;;;;;5028496;28;20213;-75
2023/05/01 09:38:24;;;;;;;10.63;2.88;;;17.70;99.90;;;;;;5028263;28;20182;-76
2023/05/01 09:40:50;;;;;;;8.00;2.40;;;17.40;99.90;;;;;;5029474;28;20243;-75
2023/05/01 09:43:26;;;;;;;5.70;2.30;;;17.30;99.90;;;;;;5027495;28;20345;-76
2023/05/01 09:46:10;;;;;;;7.07;2.25;;;17.50;99.90;;;;;;5027317;28;20184;-76
2023/05/01 09:48:36;;;;;;;7.80;2.80;;;17.80;99.90;;;;;;5027474;28;20194;-75
2023/05/01 09:51:31;;;;;;;9.63;3.03;;;17.80;99.90;;;;;;5029244;28;20184;-81
2023/05/01 09:54:02;;;;;;;4.00;1.92;;;17.50;99.90;;;;;;5029133;28;20229;-80
2023/05/01 09:56:30;;;;;;;8.30;3.17;;;16.90;99.90;;;;;;5010735;28;20229;-80
2023/05/01 09:58:57;;;;;;;6.13;2.40;;;16.90;99.90;;;;;;5029146;28;20166;-83
2023/05/01 10:01:45;;;;;;;4.85;2.10;;;16.70;99.90;;;;;;5026505;28;20677;-81
2023/05/01 10:04:11;;;;;;;6.72;2.10;;;16.80;99.90;;;;;;5025874;28;20200;-81
2023/05/01 10:06:38;;;;;;;5.82;1.92;;;17.00;99.90;;;;;;5027687;28;20182;-81
2023/05/01 10:09:06;;;;;;;4.65;1.70;;;17.20;99.90;;;;;;5029399;28;20555;-81
2023/05/01 10:11:51;;;;;;;5.13;1.98;;;17.10;99.90;;;;;;5029177;28;20197;-81
2023/05/01 10:14:16;;;;;;;5.90;2.20;;;17.60;99.90;;;;;;5026610;28;20178;-82
2023/05/01 10:16:43;;;;;;;7.97;2.08;;;17.70;99.90;;;;;;5030070;28;20188;-81
2023/05/01 10:19:09;;;;;;;5.15;1.90;;;17.70;99.90;;;;;;5030091;28;20192;-80
2023/05/01 10:21:35;;;;;;;6.68;1.95;;;17.30;99.90;;;;;;5031534;28;20707;-82
2023/05/01 10:24:05;;;;;;;6.18;2.10;;;17.20;99.90;;;;;;5032871;28;20196;-80
2023/05/01 10:26:34;;;;;;;4.43;1.67;;;17.40;99.90;;;;;;5033476;28;20239;-81
2023/05/01 10:29:00;;;;;;;6.97;1.80;;;17.50;99.90;;;;;;5034444;28;20246;-81
2023/05/01 10:31:26;;;;;;;5.05;1.48;;;17.60;99.90;;;;;;5035496;28;20251;-81
2023/05/01 10:33:53;;;;;;;5.35;1.90;;;17.50;99.90;;;;;;5035722;28;20178;-81
2023/05/01 10:36:49;;;;;;;6.30;1.70;;;17.40;99.90;;;;;;5034574;28;20221;-81
2023/05/01 10:39:35;;;;;;;6.10;2.40;;;17.40;99.90;;;;;;5017935;28;20230;-82
2023/05/01 10:42:04;;;;;;;5.50;1.88;;;16.90;99.90;;;;;;5035767;28;20280;-82
2023/05/01 10:44:30;;;;;;;6.65;2.25;;;16.70;99.90;;;;;;5015905;28;20182;-82
2023/05/01 10:46:55;;;;;;;8.35;2.47;;;16.80;99.90;;;;;;5032217;28;20209;-82
2023/05/01 10:49:21;;;;;;;6.50;2.17;;;16.70;99.90;;;;;;5033909;28;20568;-81
2023/05/01 10:51:59;;;;;;;10.82;2.05;;;16.60;99.90;;;;;;5031845;28;20220;-81
2023/05/01 10:54:26;;;;;;;4.28;1.70;;;16.70;99.90;;;;;;5034894;28;20181;-80
2023/05/01 10:57:00;;;;;;;4.57;1.50;;;16.50;99.90;;;;;;5032265;28;20265;-80
2023/05/01 10:59:26;;;;;;;7.65;1.88;;;16.70;99.90;;;;;;5034063;28;20643;-81
2023/05/01 11:01:52;;;;;;;4.72;1.42;;;16.30;99.90;;;;;;5031167;28;20284;-80
2023/05/01 11:04:18;;;;;;;3.85;1.30;;;16.70;99.90;;;;;;5032508;28;20248;-80
2023/05/01 11:07:04;;;;;;;5.25;1.10;;;17.60;99.90;;;;;;5030723;28;20273;-81
2023/05/01 11:09:36;;;;;;;2.03;0.80;;;19.80;99.90;;;;;;5036969;28;20660;-83
2023/05/01 11:12:02;;;;;;;0.80;0.60;;;21.40;99.90;;;;;;5030356;28;20202;-83
2023/05/01 11:14:51;;;;;;;1.92;0.40;;;21.70;1.00;;;;;;5032377;28;20170;-85
2023/05/01 11:17:38;;;;;;;3.53;0.73;;;21.00;83.50;;;;;;5012158;28;20652;-84
2023/05/01 11:20:24;;;;;;;4.63;0.57;;;20.90;1.00;;;;;;5031068;28;20320;-85
2023/05/01 11:22:55;;;;;;;2.28;0.28;;;20.40;1.00;;;;;;5028859;28;20666;-83
2023/05/01 11:25:29;;;;;;;0.50;0.30;;;19.40;5.50;;;;;;5032244;28;20660;-86
2023/05/01 11:28:00;;;;;;;0.63;0.40;;;19.00;96.40;;;;;;5030137;28;20180;-77
2023/05/01 11:30:36;;;;;;;0.38;0.20;;;18.90;1.00;;;;;;5029006;28;20178;-77
2023/05/01 11:33:02;;;;;;;0.40;0.35;;;19.10;1.00;;;;;;5030147;28;20729;-73
2023/05/01 11:35:29;;;;;;;1.70;0.40;;;19.60;99.90;;;;;;5028708;28;20217;-73
2023/05/01 11:37:55;;;;;;;1.77;0.70;;;19.70;46.20;;;;;;5029160;28;20277;-73
2023/05/01 11:40:25;;;;;;;4.57;0.88;;;19.10;1.00;;;;;;5028102;28;20194;-73
2023/05/01 11:42:59;;;;;;;5.15;1.10;;;18.70;1.00;;;;;;5029909;28;20182;-74
2023/05/01 11:45:25;;;;;;;6.85;1.48;;;17.90;1.00;;;;;;5029351;28;20309;-74
2023/05/01 11:47:50;;;;;;;4.25;1.42;;;17.20;1.00;;;;;;5030809;28;20277;-74
2023/05/01 11:50:16;;;;;;;8.18;1.17;;;16.90;99.90;;;;;;5027959;28;20722;-74
2023/05/01 11:52:52;;;;;;;4.03;1.40;;;16.90;99.90;;;;;;5030609;28;20644;-73
2023/05/01 11:55:18;;;;;;;7.88;1.58;;;16.90;99.90;;;;;;5029634;28;20208;-74
2023/05/01 11:57:49;;;;;;;4.78;1.40;;;17.10;99.90;;;;;;5030515;28;20205;-74
2023/05/01 12:00:25;;;;;;;4.72;1.40;;;17.20;99.90;;;;;;5029423;28;20189;-73
2023/05/01 12:02:59;;;;;;;4.28;1.25;;;17.30;1.00;;;;;;5026746;28;20185;-73
2023/05/01 12:05:27;;;;;;;1.98;0.77;;;17.60;1.00;;;;;;5027091;28;20186;-76
2023/05/01 12:08:05;;;;;;;4.22;1.42;;;18.70;1.00;;;;;;5028385;28;20185;-74
2023/05/01 12:10:32;;;;;;;1.80;0.90;;;19.70;50.90;;;;;;5025610;28;20279;-75
2023/05/01 12:12:57;;;;;;;2.25;0.90;;;20.10;99.90;;;;;;5031069;28;20177;-75
2023/05/01 12:15:23;;;;;;;5.35;1.30;;;20.80;99.90;;;;;;5026710;28;20217;-75
2023/05/01 12:17:50;;;;;;;5.82;1.27;;;20.90;1.00;;;;;;5029516;28;20304;-75
2023/05/01 12:20:17;;;;;;;3.88;1.02;;;21.00;99.90;;;;;;5028838;28;20217;-76
2023/05/01 12:22:49;;;;;;;5.45;1.40;;;20.30;1.00;;;;;;5029407;28;20181;-75
2023/05/01 12:25:16;;;;;;;4.28;1.60;;;19.80;1.00;;;;;;5026954;28;20182;-75
2023/05/01 12:27:43;;;;;;;4.82;1.30;;;19.70;1.00;;;;;;5026727;28;20289;-73
2023/05/01 12:30:09;;;;;;;3.35;1.10;;;19.40;1.00;;;;;;5028103;28;20177;-75
2023/05/01 12:32:35;;;;;;;2.67;1.05;;;19.20;1.00;;;;;;5027281;28;20181;-75
2023/05/01 12:35:12;;;;;;;5.05;1.10;;;20.00;1.00;;;;;;5028757;28;20233;-74
2023/05/01 12:37:37;;;;;;;2.97;0.98;;;20.30;1.00;;;;;;5029844;28;20342;-75
2023/05/01 12:40:04;;;;;;;3.72;0.90;;;20.60;1.00;;;;;;5029368;28;20588;-75
2023/05/01 12:42:30;;;;;;;5.35;1.00;;;21.90;1.00;;;;;;5010293;28;20232;-75
2023/05/01 12:45:00;;;;;;;2.50;1.02;;;21.90;1.00;;;;;;5028818;28;20170;-75
2023/05/01 12:47:26;;;;;;;4.38;0.90;;;21.30;1.00;;;;;;5026914;28;20269;-75
2023/05/01 12:50:01;;;;;;;3.22;0.93;;;20.70;1.00;;;;;;5029316;28;20758;-74
2023/05/01 12:52:27;;;;;;;4.38;1.38;;;19.90;99.90;;;;;;5026640;28;20177;-74